Time;durP1;ratioP1;P1;durP2;ratioP2;P2;SDS_P1;SDS_P2;PMS_P1;PMS_P2;Temp;Humidity;BMP_temperature;BMP_pressure;BME280_temperature;BME280_humidity;BME280_pressure;Samples;Min_cycle;Max_cycle;Signal;HPM_P1;HPM_P2
2022/08/08 00:00:17;;;;;;;7.00;2.00;;;;;;;14.14;96.70;102469.69;5074093;28;20119;-70
2022/08/08 00:02:45;;;;;;;1.85;1.33;;;;;;;14.04;98.76;102488.22;5083187;28;20020;-70
2022/08/08 00:05:29;;;;;;;2.80;1.92;;;;;;;13.95;99.98;102484.53;5075390;28;20101;-70
2022/08/08 00:08:12;;;;;;;2.47;1.83;;;;;;;13.98;99.14;102486.94;5078181;28;20392;-70
2022/08/08 00:11:01;;;;;;;2.50;1.48;;;;;;;13.92;98.98;102476.84;5080710;28;20030;-70
2022/08/08 00:13:38;;;;;;;3.53;1.75;;;;;;;13.94;99.80;102488.19;5077783;28;20515;-70
2022/08/08 00:16:08;;;;;;;3.05;1.60;;;;;;;13.77;100.00;102470.22;5079721;28;20051;-70
2022/08/08 00:18:57;;;;;;;5.80;3.03;;;;;;;13.85;100.00;102488.97;5081730;28;20031;-70
2022/08/08 00:21:32;;;;;;;2.88;1.60;;;;;;;13.89;100.00;102487.75;5075693;28;20470;-70
2022/08/08 00:24:05;;;;;;;2.50;1.52;;;;;;;13.92;100.00;102484.81;5071902;28;20466;-70
2022/08/08 00:26:33;;;;;;;1.88;1.40;;;;;;;13.95;99.88;102489.00;5065785;28;20021;-70
2022/08/08 00:29:23;;;;;;;1.65;1.30;;;;;;;13.95;99.64;102489.00;5081710;28;20397;-70
2022/08/08 00:31:52;;;;;;;1.98;1.35;;;;;;;13.89;99.59;102469.16;5071732;28;20082;-70
2022/08/08 00:37:41;;;;;;;6.25;1.75;;;;;;;14.03;98.75;102488.38;5072736;28;20561;-70
2022/08/08 00:40:25;;;;;;;2.00;1.50;;;;;;;13.90;99.10;102484.09;5074635;28;20502;-70
2022/08/08 00:43:14;;;;;;;4.82;1.83;;;;;;;13.76;100.00;102489.75;5071937;28;20047;-70
2022/08/08 00:46:24;;;;;;;2.53;1.35;;;;;;;13.71;100.00;102499.91;5076862;28;20049;-70
2022/08/08 00:49:08;;;;;;;2.28;1.67;;;;;;;13.78;100.00;102501.94;5078026;28;20052;-70
2022/08/08 00:52:01;;;;;;;2.63;1.70;;;;;;;13.79;100.00;102500.09;5078255;28;20020;-70
2022/08/08 00:54:51;;;;;;;1.70;1.13;;;;;;;13.85;100.00;102499.59;5074136;28;20013;-70
2022/08/08 00:57:25;;;;;;;2.15;1.52;;;;;;;13.88;100.00;102499.31;5079670;28;20447;-70
2022/08/08 01:00:22;;;;;;;2.42;1.67;;;;;;;13.91;99.04;102498.22;5074546;28;20036;-70
2022/08/08 01:03:21;;;;;;;2.88;1.35;;;;;;;13.94;98.13;102490.84;5069921;28;20036;-70
2022/08/08 01:06:20;;;;;;;2.30;1.52;;;;;;;13.94;98.98;102504.09;5075755;28;20032;-71
2022/08/08 01:09:23;;;;;;;6.50;2.20;;;;;;;13.86;100.00;102506.56;5077488;28;20024;-71
2022/08/08 01:12:07;;;;;;;1.92;1.30;;;;;;;13.78;100.00;102498.41;5074932;28;20512;-71
2022/08/08 01:15:03;;;;;;;2.05;1.75;;;;;;;13.63;100.00;102497.06;5072736;28;20024;-71
2022/08/08 01:17:50;;;;;;;1.77;1.15;;;;;;;13.53;100.00;102484.59;5072301;28;20028;-71
2022/08/08 01:20:21;;;;;;;2.67;1.48;;;;;;;13.54;100.00;102480.97;5079325;28;20024;-71
2022/08/08 01:23:04;;;;;;;2.20;1.98;;;;;;;13.55;100.00;102487.94;5055213;28;20025;-72
2022/08/08 01:26:10;;;;;;;2.35;1.08;;;;;;;13.50;100.00;102483.97;5071779;28;20020;-71
2022/08/08 01:29:00;;;;;;;4.13;2.13;;;;;;;13.56;100.00;102486.13;5034017;28;1083147;-71
2022/08/08 01:31:51;;;;;;;2.20;1.20;;;;;;;13.56;100.00;102486.97;5077545;28;20036;-71
2022/08/08 01:34:44;;;;;;;3.95;1.55;;;;;;;13.59;100.00;102491.19;5065839;28;20270;-71
2022/08/08 01:37:10;;;;;;;1.90;1.45;;;;;;;13.58;100.00;102487.66;5069642;28;20027;-71
2022/08/08 01:39:47;;;;;;;2.75;1.35;;;;;;;13.58;100.00;102487.66;5077205;28;20046;-71
2022/08/08 01:42:32;;;;;;;3.72;1.40;;;;;;;13.61;100.00;102483.94;5074755;28;20535;-72
2022/08/08 01:45:17;;;;;;;2.03;1.58;;;;;;;13.62;100.00;102488.25;5072543;28;20020;-71
2022/08/08 01:48:05;;;;;;;2.80;1.42;;;;;;;13.67;100.00;102482.56;5074615;28;20055;-71
2022/08/08 01:50:51;;;;;;;2.65;0.95;;;;;;;13.75;100.00;102488.91;5076959;28;20020;-71
2022/08/08 01:53:35;;;;;;;1.77;1.15;;;;;;;13.85;100.00;102488.97;5070242;28;20039;-71
2022/08/08 01:56:45;;;;;;;4.18;0.95;;;;;;;13.90;99.68;102491.22;5073707;28;20028;-71
2022/08/08 01:59:45;;;;;;;3.50;1.60;;;;;;;13.88;100.00;102488.69;5032717;28;20057;-71
2022/08/08 02:02:39;;;;;;;7.45;2.65;;;;;;;13.84;100.00;102502.38;5034961;28;20098;-71
2022/08/08 02:05:19;;;;;;;2.03;1.25;;;;;;;13.75;100.00;102504.00;5034839;28;20033;-71
2022/08/08 02:08:09;;;;;;;4.68;1.63;;;;;;;13.66;100.00;102494.16;5034808;28;20030;-72
2022/08/08 02:11:01;;;;;;;2.50;1.50;;;;;;;13.63;100.00;102497.94;5033372;28;20051;-72
2022/08/08 02:13:45;;;;;;;2.63;1.70;;;;;;;13.68;100.00;102502.84;4998907;28;20127;-71
2022/08/08 02:16:22;;;;;;;3.60;2.38;;;;;;;13.69;100.00;102500.03;5018363;28;20090;-71
2022/08/08 02:19:17;;;;;;;2.25;1.42;;;;;;;13.71;100.00;102502.56;5035754;28;20029;-71
2022/08/08 02:25:13;;;;;;;2.60;1.55;;;;;;;13.76;100.00;102505.66;5032912;28;20615;-71
2022/08/08 02:27:58;;;;;;;3.40;1.67;;;;;;;13.84;100.00;102507.69;5034971;28;20555;-71
2022/08/08 02:30:45;;;;;;;2.20;1.35;;;;;;;13.92;100.00;102508.69;5034399;28;20588;-71
2022/08/08 02:33:13;;;;;;;11.88;1.95;;;;;;;14.06;100.00;102502.19;5034025;28;20083;-71
2022/08/08 02:35:52;;;;;;;2.15;1.67;;;;;;;14.17;100.00;102506.56;5054352;28;20089;-71
2022/08/08 02:38:33;;;;;;;3.03;1.30;;;;;;;14.25;100.00;102505.94;5071530;28;20107;-71
2022/08/08 02:41:01;;;;;;;;;;;;;;;14.28;100.00;102503.81;5070437;28;20028;-71
2022/08/08 02:43:54;;;;;;;2.55;1.35;;;;;;;14.30;100.00;102496.56;5074179;28;20092;-71
2022/08/08 02:46:34;;;;;;;3.65;1.33;;;;;;;14.26;100.00;102492.50;5069569;28;20029;-71
2022/08/08 02:49:30;;;;;;;4.73;2.77;;;;;;;14.30;100.00;102504.53;5076242;28;20020;-71
2022/08/08 02:52:15;;;;;;;1.38;1.13;;;;;;;14.20;100.00;102504.50;5069706;28;20545;-71
2022/08/08 02:55:19;;;;;;;2.55;1.42;;;;;;;14.14;100.00;102509.50;5069641;28;20031;-71
2022/08/08 02:58:04;;;;;;;3.03;2.10;;;;;;;14.16;100.00;102507.56;5074304;28;20480;-71
2022/08/08 03:00:48;;;;;;;4.65;1.58;;;;;;;14.19;100.00;102515.25;5058813;28;20447;-71
2022/08/08 03:03:32;;;;;;;1.70;1.10;;;;;;;14.25;100.00;102513.91;5085820;28;20043;-72
2022/08/08 03:06:13;;;;;;;2.42;1.33;;;;;;;14.33;100.00;102504.28;5063369;28;20234;-71
2022/08/08 03:08:57;;;;;;;2.60;1.75;;;;;;;14.45;100.00;102512.97;5083661;28;20017;-71
2022/08/08 03:11:40;;;;;;;2.53;1.50;;;;;;;14.53;100.00;102510.50;5074173;28;20476;-71
2022/08/08 03:14:39;;;;;;;2.33;1.70;;;;;;;14.52;100.00;102508.78;5069420;28;20107;-71
2022/08/08 03:17:11;;;;;;;3.17;1.50;;;;;;;14.56;100.00;102507.59;5039242;28;20040;-71
2022/08/08 03:22:27;;;;;;;3.67;1.38;;;;;;;14.67;100.00;102511.13;5074425;28;20484;-71
2022/08/08 03:24:53;;;;;;;1.50;1.10;;;;;;;14.68;100.00;102511.00;5074343;28;20063;-71
2022/08/08 03:27:25;;;;;;;6.47;2.08;;;;;;;14.72;100.00;102512.41;5074228;28;20028;-71
2022/08/08 03:30:05;;;;;;;3.30;1.55;;;;;;;14.74;100.00;102518.44;5072739;28;20052;-71
2022/08/08 03:35:16;;;;;;;4.65;2.15;;;;;;;14.62;100.00;102503.56;5069122;28;20043;-71
2022/08/08 03:37:42;;;;;;;2.08;1.42;;;;;;;14.66;100.00;102506.78;5073831;28;20456;-71
2022/08/08 03:40:07;;;;;;;2.30;1.85;;;;;;;14.65;100.00;102513.91;5073733;28;20407;-71
2022/08/08 03:42:35;;;;;;;3.92;1.95;;;;;;;14.57;100.00;102511.09;5073523;28;20025;-71
2022/08/08 03:45:01;;;;;;;2.47;1.75;;;;;;;14.58;100.00;102523.41;5071079;28;20021;-71
2022/08/08 03:47:26;;;;;;;1.85;1.33;;;;;;;14.59;100.00;102517.97;5072290;28;20076;-71
2022/08/08 03:49:52;;;;;;;2.03;1.55;;;;;;;14.58;100.00;102518.09;5068313;28;20107;-71
2022/08/08 03:52:17;;;;;;;1.58;1.33;;;;;;;14.59;100.00;102519.78;5073720;28;20048;-71
2022/08/08 03:54:44;;;;;;;5.47;2.35;;;;;;;14.61;100.00;102523.13;5077124;28;20027;-71
2022/08/08 03:57:14;;;;;;;4.45;2.58;;;;;;;14.63;100.00;102521.16;5072973;28;20023;-71
2022/08/08 03:59:40;;;;;;;3.45;1.63;;;;;;;14.69;100.00;102525.13;5073536;28;20048;-71
2022/08/08 04:02:18;;;;;;;1.98;1.77;;;;;;;14.71;100.00;102524.00;5069357;28;20021;-71
2022/08/08 04:04:44;;;;;;;3.35;1.83;;;;;;;14.63;100.00;102505.22;5070896;28;20028;-71
2022/08/08 04:07:09;;;;;;;5.55;2.50;;;;;;;14.72;100.00;102517.72;5072176;28;20308;-71
2022/08/08 04:09:35;;;;;;;5.47;2.40;;;;;;;14.69;100.00;102527.78;5073289;28;20027;-71
2022/08/08 04:12:01;;;;;;;2.63;2.00;;;;;;;14.71;100.00;102533.78;5069326;28;20025;-71
2022/08/08 04:14:27;;;;;;;2.20;1.42;;;;;;;14.74;100.00;102528.19;5069047;28;20052;-71
2022/08/08 04:16:53;;;;;;;3.10;2.20;;;;;;;14.76;100.00;102542.19;5074108;28;20056;-71
2022/08/08 04:19:18;;;;;;;5.45;2.00;;;;;;;14.73;100.00;102537.16;5076565;28;20449;-71
2022/08/08 04:21:43;;;;;;;2.78;1.92;;;;;;;14.55;100.00;102534.31;5078375;28;20028;-71
2022/08/08 04:24:09;;;;;;;3.22;1.92;;;;;;;14.57;100.00;102537.69;5073861;28;20036;-71
2022/08/08 04:26:34;;;;;;;5.10;1.70;;;;;;;14.46;100.00;102529.75;5076554;28;20032;-71
2022/08/08 04:29:00;;;;;;;4.65;2.28;;;;;;;14.55;100.00;102537.81;5074871;28;20117;-71
2022/08/08 04:31:25;;;;;;;3.35;2.00;;;;;;;14.57;100.00;102537.69;5077964;28;20073;-71
2022/08/08 04:33:51;;;;;;;3.10;2.30;;;;;;;14.46;100.00;102520.00;5075408;28;20312;-71
2022/08/08 04:36:16;;;;;;;3.75;2.28;;;;;;;14.44;100.00;102526.38;5057872;28;20044;-71
2022/08/08 04:38:41;;;;;;;6.50;1.98;;;;;;;14.54;100.00;102538.72;5079124;28;20021;-71
2022/08/08 04:41:07;;;;;;;5.85;1.85;;;;;;;14.58;100.00;102534.03;5074719;28;20266;-71
2022/08/08 04:43:32;;;;;;;3.05;1.73;;;;;;;14.64;100.00;102541.47;5075347;28;20036;-71
2022/08/08 04:45:58;;;;;;;2.28;1.65;;;;;;;14.71;100.00;102539.09;5057968;28;20028;-71
2022/08/08 04:48:23;;;;;;;2.47;1.98;;;;;;;14.80;100.00;102525.00;5076711;28;20366;-71
2022/08/08 04:50:48;;;;;;;2.58;1.67;;;;;;;14.78;100.00;102525.13;5072816;28;20029;-71
2022/08/08 04:53:14;;;;;;;5.45;1.67;;;;;;;14.88;100.00;102541.09;5075438;28;20035;-71
2022/08/08 04:55:40;;;;;;;3.15;2.00;;;;;;;14.93;100.00;102522.91;5080859;28;20020;-72
2022/08/08 04:58:05;;;;;;;5.50;1.88;;;;;;;15.04;100.00;102532.59;5078697;28;20089;-72
2022/08/08 05:00:31;;;;;;;3.67;1.98;;;;;;;15.10;100.00;102540.03;5073145;28;20481;-72
2022/08/08 05:02:56;;;;;;;3.00;1.50;;;;;;;15.16;100.00;102539.47;5076950;28;20488;-70
2022/08/08 05:05:22;;;;;;;4.45;1.88;;;;;;;15.25;100.00;102550.25;5073457;28;20066;-72
2022/08/08 05:07:48;;;;;;;3.83;1.83;;;;;;;15.34;100.00;102552.06;5077295;28;20586;-71
2022/08/08 05:10:13;;;;;;;1.83;1.30;;;;;;;15.42;99.39;102544.25;5077305;28;20017;-72
2022/08/08 05:12:40;;;;;;;2.17;1.33;;;;;;;15.52;98.75;102550.38;5073068;28;20577;-71
2022/08/08 05:15:06;;;;;;;1.90;1.20;;;;;;;15.58;97.47;102549.81;5074250;28;20033;-71
2022/08/08 05:17:31;;;;;;;4.00;1.45;;;;;;;15.67;98.56;102557.94;5073093;28;20039;-72
2022/08/08 05:19:57;;;;;;;4.47;1.48;;;;;;;15.64;98.59;102559.91;5076506;28;20036;-72
2022/08/08 05:22:23;;;;;;;1.63;0.95;;;;;;;15.73;97.61;102562.75;5077745;28;20720;-71
2022/08/08 05:24:48;;;;;;;2.50;1.77;;;;;;;15.81;96.96;102560.22;5075139;28;20475;-73
2022/08/08 05:27:13;;;;;;;2.72;1.83;;;;;;;15.87;97.56;102564.94;5074105;28;20093;-72
2022/08/08 05:29:39;;;;;;;2.10;1.85;;;;;;;15.86;97.92;102557.94;5071450;28;20041;-72
2022/08/08 05:32:06;;;;;;;3.42;2.20;;;;;;;15.76;98.22;102546.47;5074635;28;20400;-72
2022/08/08 05:34:46;;;;;;;2.80;1.58;;;;;;;15.71;99.87;102548.69;5073392;28;20112;-72
2022/08/08 05:37:17;;;;;;;2.17;1.50;;;;;;;15.78;99.96;102557.81;5075886;28;20073;-71
2022/08/08 05:39:54;;;;;;;5.50;1.92;;;;;;;15.90;99.23;102570.00;5073092;28;20012;-71
2022/08/08 05:42:37;;;;;;;1.98;1.25;;;;;;;16.00;97.80;102572.63;5077936;28;20031;-71
2022/08/08 05:45:03;;;;;;;2.38;1.35;;;;;;;16.09;97.69;102573.59;5071569;28;20012;-71
2022/08/08 05:47:29;;;;;;;2.85;1.83;;;;;;;16.22;97.00;102574.09;5075559;28;20480;-71
2022/08/08 05:49:56;;;;;;;2.15;1.50;;;;;;;16.19;96.49;102553.94;5073550;28;20081;-71
2022/08/08 05:52:21;;;;;;;3.90;1.38;;;;;;;16.40;94.53;102575.03;5076369;28;20074;-72
2022/08/08 05:54:47;;;;;;;1.77;1.30;;;;;;;16.49;94.34;102567.16;5076768;28;20040;-72
2022/08/08 05:57:16;;;;;;;3.03;1.27;;;;;;;16.53;92.78;102563.22;5075171;28;20344;-71
2022/08/08 05:59:51;;;;;;;2.78;1.75;;;;;;;16.68;90.46;102569.72;5071033;28;20438;-71
2022/08/08 06:05:08;;;;;;;2.47;1.25;;;;;;;16.87;90.83;102582.13;5072156;28;20070;-72
2022/08/08 06:07:37;;;;;;;2.28;1.60;;;;;;;17.02;91.18;102580.63;5073959;28;20560;-71
2022/08/08 06:10:03;;;;;;;1.90;1.38;;;;;;;17.14;90.22;102573.28;5075029;28;20467;-71
2022/08/08 06:12:32;;;;;;;2.47;1.40;;;;;;;17.39;89.34;102579.66;5067134;28;20079;-72
2022/08/08 06:15:05;;;;;;;1.45;1.13;;;;;;;17.57;90.02;102571.66;5070568;28;20024;-73
2022/08/08 06:17:35;;;;;;;2.15;1.30;;;;;;;17.87;87.26;102588.28;5071914;28;20032;-71
2022/08/08 06:20:03;;;;;;;1.85;1.10;;;;;;;18.14;85.26;102581.97;5073162;28;20082;-71
2022/08/08 06:22:29;;;;;;;2.30;1.70;;;;;;;18.16;86.84;102582.63;5074909;28;20021;-71
2022/08/08 06:24:55;;;;;;;3.70;1.05;;;;;;;18.22;87.31;102583.81;5072639;28;20025;-71
2022/08/08 06:27:45;;;;;;;3.38;1.73;;;;;;;18.38;86.95;102588.41;5077690;28;20027;-72
2022/08/08 06:30:12;;;;;;;1.30;1.00;;;;;;;18.64;84.75;102583.88;5071859;28;20599;-72
2022/08/08 06:32:58;;;;;;;2.40;1.67;;;;;;;18.86;86.34;102595.84;5072192;28;20435;-72
2022/08/08 06:35:24;;;;;;;2.97;1.10;;;;;;;18.99;84.28;102582.03;5075799;28;20118;-72
2022/08/08 06:38:00;;;;;;;1.42;1.08;;;;;;;19.22;85.05;102598.28;5076635;28;20134;-72
2022/08/08 06:40:30;;;;;;;3.25;1.50;;;;;;;19.47;83.65;102604.50;5074688;28;20081;-72
2022/08/08 06:43:03;;;;;;;1.73;0.75;;;;;;;19.72;80.50;102600.00;5072301;28;20020;-72
2022/08/08 06:45:32;;;;;;;4.88;1.08;;;;;;;19.84;81.73;102602.38;5072718;28;20503;-72
2022/08/08 06:47:59;;;;;;;3.45;1.67;;;;;;;19.84;80.69;102591.66;5073373;28;20077;-72
2022/08/08 06:50:26;;;;;;;1.55;1.00;;;;;;;19.95;81.01;102607.38;5073227;28;20502;-72
2022/08/08 06:52:51;;;;;;;2.42;0.93;;;;;;;19.99;79.08;102606.03;5070095;28;20590;-72
2022/08/08 06:55:20;;;;;;;3.70;1.10;;;;;;;20.04;80.31;102610.91;5075589;28;20067;-72
2022/08/08 06:57:46;;;;;;;2.10;0.73;;;;;;;20.02;80.58;102604.88;5061276;28;20036;-72
2022/08/08 07:00:12;;;;;;;2.33;0.85;;;;;;;20.03;80.20;102610.03;5072737;28;20033;-72
2022/08/08 07:02:44;;;;;;;4.47;0.90;;;;;;;20.00;79.80;102606.88;5068557;28;20086;-72
2022/08/08 07:05:15;;;;;;;1.65;0.90;;;;;;;19.84;78.33;102591.66;5076279;28;20013;-72
2022/08/08 07:08:16;;;;;;;4.60;0.93;;;;;;;19.90;78.97;102609.72;5070948;28;20023;-72
2022/08/08 07:10:48;;;;;;;1.85;0.98;;;;;;;19.87;79.78;102610.06;5069514;28;20115;-72
2022/08/08 07:13:19;;;;;;;3.15;0.90;;;;;;;19.98;78.98;102607.03;5070279;28;20017;-72
2022/08/08 07:16:04;;;;;;;1.25;0.70;;;;;;;20.06;78.80;102603.53;5069409;28;20043;-72
2022/08/08 07:18:49;;;;;;;1.95;1.10;;;;;;;20.02;79.83;102594.97;5071111;28;20048;-73
2022/08/08 07:21:19;;;;;;;3.42;1.13;;;;;;;20.24;78.52;102595.28;5069613;28;20036;-72
2022/08/08 07:24:07;;;;;;;1.02;0.73;;;;;;;20.59;78.26;102609.25;5077531;28;20020;-72
2022/08/08 07:26:33;;;;;;;1.35;0.90;;;;;;;20.79;77.95;102617.72;5068913;28;20024;-72
2022/08/08 07:29:01;;;;;;;2.65;0.80;;;;;;;20.99;79.11;102610.06;5078602;28;20347;-72
2022/08/08 07:31:27;;;;;;;2.22;1.10;;;;;;;21.23;77.09;102618.00;5069373;28;20036;-72
2022/08/08 07:33:54;;;;;;;1.83;1.08;;;;;;;21.42;77.32;102610.50;5077377;28;20035;-72
2022/08/08 07:36:21;;;;;;;2.20;0.75;;;;;;;21.71;75.37;102628.56;5071030;28;20036;-72
2022/08/08 07:38:47;;;;;;;1.40;0.85;;;;;;;21.87;73.54;102615.00;5078310;28;20026;-72
2022/08/08 07:41:15;;;;;;;1.27;0.60;;;;;;;21.98;72.70;102617.25;5071571;28;20480;-72
2022/08/08 07:43:42;;;;;;;1.05;0.70;;;;;;;22.21;72.52;102631.66;5076563;28;20009;-71
2022/08/08 07:46:08;;;;;;;2.35;1.17;;;;;;;22.24;71.68;102626.78;5074618;28;20542;-73
2022/08/08 07:48:33;;;;;;;1.85;0.88;;;;;;;22.16;71.91;102632.19;5073007;28;20044;-72
2022/08/08 07:50:59;;;;;;;1.00;0.70;;;;;;;22.10;71.58;102633.78;5077845;28;20032;-72
2022/08/08 07:53:24;;;;;;;0.98;0.68;;;;;;;22.08;72.66;102637.66;5073210;28;20472;-72
2022/08/08 07:55:52;;;;;;;5.90;0.82;;;;;;;22.04;72.97;102645.25;5072555;28;20032;-72
2022/08/08 07:58:33;;;;;;;1.83;1.00;;;;;;;22.12;73.34;102641.66;5077382;28;20193;-72
2022/08/08 08:01:03;;;;;;;;;;;;;;;22.24;71.45;102639.41;5073418;28;20025;-72
2022/08/08 08:03:42;;;;;;;2.38;0.60;;;;;;;22.39;71.03;102641.06;5078049;28;19908;-72
2022/08/08 08:06:10;;;;;;;1.40;0.47;;;;;;;22.73;74.51;102636.97;5075823;28;20027;-72
2022/08/08 08:08:53;;;;;;;0.55;0.40;;;;;;;24.60;68.75;102641.41;5078665;28;20029;-72
2022/08/08 08:11:22;;;;;;;0.90;0.57;;;;;;;25.84;63.65;102632.97;5075891;28;20025;-73
2022/08/08 08:13:50;;;;;;;0.73;0.40;;;;;;;26.80;59.69;102638.84;5076756;28;20061;-72
2022/08/08 08:16:25;;;;;;;3.65;0.50;;;;;;;27.25;57.51;102639.69;5077224;28;20444;-72
2022/08/08 08:18:56;;;;;;;1.55;0.50;;;;;;;26.74;58.27;102640.56;5085191;28;20027;-72
2022/08/08 08:21:26;;;;;;;1.70;0.57;;;;;;;26.25;58.56;102636.50;5069352;28;20040;-73
2022/08/08 08:23:52;;;;;;;1.52;0.68;;;;;;;25.98;60.41;102643.81;5075617;28;20133;-72
2022/08/08 08:26:17;;;;;;;1.70;0.57;;;;;;;25.68;60.83;102646.09;5076642;28;20606;-73
2022/08/08 08:28:44;;;;;;;0.47;0.30;;;;;;;25.42;60.26;102645.84;5078788;28;20040;-73
2022/08/08 08:31:09;;;;;;;1.20;0.77;;;;;;;25.07;60.88;102644.31;5079946;28;20419;-74
2022/08/08 08:33:35;;;;;;;2.05;0.38;;;;;;;24.73;61.64;102643.34;5080168;28;20066;-73
2022/08/08 08:36:01;;;;;;;0.60;0.40;;;;;;;24.61;61.90;102657.41;5070395;28;20032;-73
2022/08/08 08:38:27;;;;;;;1.45;0.50;;;;;;;24.52;62.33;102641.56;5077053;28;20038;-73
2022/08/08 08:40:52;;;;;;;1.02;0.30;;;;;;;24.51;61.71;102646.13;5077639;28;20095;-73
2022/08/08 08:43:19;;;;;;;1.00;0.50;;;;;;;24.50;61.94;102644.47;5073965;28;20546;-73
2022/08/08 08:45:46;;;;;;;1.05;0.40;;;;;;;24.49;61.85;102653.59;5081633;28;20021;-71
2022/08/08 08:48:13;;;;;;;0.50;0.20;;;;;;;24.43;62.78;102648.97;5074417;28;20046;-73
2022/08/08 08:50:40;;;;;;;0.80;0.55;;;;;;;24.47;61.85;102644.84;5076042;28;20082;-72
2022/08/08 08:53:08;;;;;;;1.83;0.40;;;;;;;24.48;61.92;102651.09;5082275;28;20051;-71
2022/08/08 08:55:37;;;;;;;1.35;0.47;;;;;;;24.60;61.70;102646.81;5074270;28;20511;-72
2022/08/08 08:58:04;;;;;;;0.63;0.40;;;;;;;24.76;61.59;102653.72;5071556;28;20020;-71
2022/08/08 09:00:32;;;;;;;2.75;0.50;;;;;;;24.91;59.15;102650.88;5075514;28;20078;-71
2022/08/08 09:02:59;;;;;;;0.47;0.20;;;;;;;25.05;59.19;102650.72;5078048;28;20142;-71
2022/08/08 09:05:26;;;;;;;0.70;0.30;;;;;;;25.30;59.85;102649.38;5080014;28;20112;-71
2022/08/08 09:07:54;;;;;;;0.70;0.30;;;;;;;25.47;60.14;102656.06;5075217;28;20028;-72
2022/08/08 09:10:22;;;;;;;0.93;0.20;;;;;;;25.71;59.87;102662.72;5078149;28;20028;-71
2022/08/08 09:12:49;;;;;;;0.95;0.45;;;;;;;26.10;57.51;102663.78;5073814;28;20039;-71
2022/08/08 09:15:15;;;;;;;0.73;0.30;;;;;;;26.33;56.18;102657.94;5076908;28;20030;-71
2022/08/08 09:17:41;;;;;;;0.77;0.32;;;;;;;26.43;57.10;102668.31;5079497;28;20021;-71
2022/08/08 09:20:09;;;;;;;1.08;0.47;;;;;;;26.50;55.72;102665.59;5079073;28;20394;-72
2022/08/08 09:22:35;;;;;;;1.33;0.60;;;;;;;26.45;56.34;102663.53;5071018;28;20028;-72
2022/08/08 09:25:02;;;;;;;0.82;0.47;;;;;;;26.33;55.73;102673.34;5072653;28;20466;-72
2022/08/08 09:27:27;;;;;;;0.68;0.30;;;;;;;26.15;56.81;102672.09;5081633;28;20036;-72
2022/08/08 09:30:07;;;;;;;0.73;0.38;;;;;;;26.06;57.54;102676.06;5074166;28;20075;-72
2022/08/08 09:32:42;;;;;;;0.40;0.20;;;;;;;26.15;56.58;102669.41;5083456;28;20024;-72
2022/08/08 09:35:13;;;;;;;2.28;0.30;;;;;;;26.02;56.20;102664.00;5071048;28;20060;-72
2022/08/08 09:37:47;;;;;;;0.88;0.43;;;;;;;26.16;56.86;102664.84;5078572;28;20387;-73
2022/08/08 09:40:33;;;;;;;1.00;0.52;;;;;;;26.11;57.47;102668.19;5077654;28;20034;-72
2022/08/08 09:43:15;;;;;;;1.95;0.43;;;;;;;26.31;55.16;102672.72;5076266;28;20408;-72
2022/08/08 09:46:01;;;;;;;1.58;0.40;;;;;;;26.25;55.93;102675.22;5074690;28;20019;-72
2022/08/08 09:48:31;;;;;;;1.25;0.40;;;;;;;26.31;56.88;102673.56;5069214;28;20389;-72
2022/08/08 09:50:58;;;;;;;1.45;0.40;;;;;;;26.27;55.86;102669.59;5080611;28;20020;-72
2022/08/08 09:53:33;;;;;;;1.65;0.30;;;;;;;26.35;56.20;102665.81;5076140;28;20104;-72
2022/08/08 09:56:03;;;;;;;1.88;0.40;;;;;;;26.25;55.26;102680.63;5052155;28;20037;-72
2022/08/08 09:58:36;;;;;;;1.40;0.40;;;;;;;26.03;55.95;102666.50;5076224;28;20841;-72
2022/08/08 10:01:05;;;;;;;0.77;0.40;;;;;;;26.06;56.04;102679.59;5070708;28;20056;-72
2022/08/08 10:03:34;;;;;;;0.45;0.30;;;;;;;26.15;54.81;102676.69;5077438;28;20024;-72
2022/08/08 10:05:59;;;;;;;2.53;0.82;;;;;;;26.24;55.46;102672.75;5080367;28;20024;-72
2022/08/08 10:08:25;;;;;;;1.90;0.38;;;;;;;26.39;55.53;102681.47;5056376;28;20093;-72
2022/08/08 10:10:57;;;;;;;1.95;0.30;;;;;;;26.42;55.51;102674.78;5081653;28;20058;-72
2022/08/08 10:13:30;;;;;;;1.58;0.52;;;;;;;26.36;55.85;102681.03;5077419;28;20024;-72
2022/08/08 10:16:00;;;;;;;1.30;0.65;;;;;;;26.20;56.71;102672.31;5072789;28;20106;-72
2022/08/08 10:18:27;;;;;;;;;;;;;;;26.05;55.36;102679.84;5069464;28;20430;-72
2022/08/08 10:21:01;;;;;;;0.60;0.22;;;;;;;25.96;55.21;102671.09;5076006;28;20382;-72
2022/08/08 10:23:43;;;;;;;2.30;0.40;;;;;;;26.06;56.51;102676.06;5073374;28;20058;-71
2022/08/08 10:26:38;;;;;;;0.93;0.30;;;;;;;26.38;56.55;102668.94;5079045;28;20031;-72
2022/08/08 10:29:09;;;;;;;0.55;0.25;;;;;;;26.66;55.56;102666.00;5058796;28;20055;-72
2022/08/08 10:34:22;;;;;;;1.30;0.38;;;;;;;26.59;55.79;102675.19;5084559;28;20050;-72
2022/08/08 10:36:49;;;;;;;0.75;0.30;;;;;;;26.86;55.03;102676.75;5073595;28;20047;-76
2022/08/08 10:39:20;;;;;;;1.65;0.30;;;;;;;26.79;55.29;102661.56;5077248;28;20583;-72
2022/08/08 10:42:01;;;;;;;3.47;0.30;;;;;;;27.00;55.61;102672.13;5078505;28;20028;-72
2022/08/08 10:44:44;;;;;;;2.42;0.63;;;;;;;26.94;55.80;102667.56;5078795;28;20016;-72
2022/08/08 10:47:12;;;;;;;1.73;0.40;;;;;;;27.05;54.28;102664.16;5070954;28;20040;-72
2022/08/08 10:49:48;;;;;;;0.93;0.60;;;;;;;27.12;54.82;102664.13;5078732;28;20070;-72
2022/08/08 10:52:32;;;;;;;0.50;0.30;;;;;;;26.90;55.24;102674.44;5079767;28;20028;-72
2022/08/08 10:55:01;;;;;;;2.78;0.63;;;;;;;26.96;54.58;102665.47;5072123;28;20024;-72
2022/08/08 10:57:26;;;;;;;0.80;0.20;;;;;;;27.14;55.41;102669.34;5072262;28;20020;-72
2022/08/08 10:59:54;;;;;;;4.03;0.50;;;;;;;27.01;56.54;102678.34;5080534;28;20429;-72
2022/08/08 11:02:33;;;;;;;0.50;0.30;;;;;;;27.22;55.49;102669.94;5074878;28;20024;-72
2022/08/08 11:05:00;;;;;;;1.05;0.70;;;;;;;27.39;54.92;102683.78;5076153;28;20120;-72
2022/08/08 11:07:36;;;;;;;1.98;0.60;;;;;;;27.29;55.25;102675.31;5067953;28;20037;-72
2022/08/08 11:10:05;;;;;;;1.55;0.40;;;;;;;27.30;55.99;102682.38;5079107;28;20024;-72
2022/08/08 11:12:43;;;;;;;1.77;0.43;;;;;;;27.29;55.07;102675.31;5072115;28;20021;-72
2022/08/08 11:15:11;;;;;;;2.90;0.57;;;;;;;27.29;55.83;102678.03;5081678;28;20024;-72
2022/08/08 11:17:39;;;;;;;3.08;0.50;;;;;;;27.18;56.53;102684.13;5075425;28;20040;-72
2022/08/08 11:20:05;;;;;;;1.00;0.30;;;;;;;26.95;56.55;102669.19;5080317;28;20360;-72
2022/08/08 11:22:32;;;;;;;0.70;0.22;;;;;;;26.96;55.03;102676.28;5058768;28;20085;-72
2022/08/08 11:25:00;;;;;;;0.95;0.60;;;;;;;26.87;56.41;102678.41;5071141;28;20048;-72
2022/08/08 11:27:30;;;;;;;1.20;0.60;;;;;;;26.80;56.82;102680.31;5073160;28;20042;-72
2022/08/08 11:29:57;;;;;;;2.60;0.20;;;;;;;26.84;55.77;102672.59;5077881;28;20048;-72
2022/08/08 11:32:29;;;;;;;0.98;0.47;;;;;;;27.15;55.65;102679.13;5084849;28;20036;-72
2022/08/08 11:35:11;;;;;;;0.70;0.38;;;;;;;27.17;54.91;102677.00;5079675;28;20499;-72
2022/08/08 11:37:40;;;;;;;0.50;0.28;;;;;;;27.09;55.09;102670.81;5074143;28;20038;-72
2022/08/08 11:40:08;;;;;;;3.38;1.05;;;;;;;27.39;55.62;102670.22;5083067;28;20308;-72
2022/08/08 11:42:34;;;;;;;2.97;0.40;;;;;;;27.52;53.86;102673.91;5081612;28;20027;-72
2022/08/08 11:45:00;;;;;;;1.40;0.30;;;;;;;27.34;53.27;102672.78;5079789;28;20477;-72
2022/08/08 11:47:26;;;;;;;0.43;0.20;;;;;;;27.12;54.85;102663.28;5086939;28;20453;-72
2022/08/08 11:49:54;;;;;;;1.08;0.38;;;;;;;27.51;55.15;102677.69;5076940;28;20024;-72
2022/08/08 11:52:21;;;;;;;0.75;0.20;;;;;;;27.73;53.66;102668.13;5078448;28;20049;-72
2022/08/08 11:54:46;;;;;;;0.93;0.20;;;;;;;27.63;54.76;102670.47;5074594;28;20032;-72
2022/08/08 11:57:21;;;;;;;1.55;0.65;;;;;;;27.20;54.20;102669.28;5069159;28;20485;-72
2022/08/08 11:59:54;;;;;;;0.50;0.15;;;;;;;27.27;55.51;102666.56;5075727;28;20295;-72
2022/08/08 12:02:20;;;;;;;3.97;0.40;;;;;;;27.85;54.20;102674.53;5077176;28;20427;-72
2022/08/08 12:04:46;;;;;;;1.10;0.40;;;;;;;27.71;51.41;102667.50;5076625;28;20032;-72
2022/08/08 12:07:11;;;;;;;1.33;0.22;;;;;;;27.71;51.90;102672.94;5081380;28;20035;-72